Time;durP1;ratioP1;P1;durP2;ratioP2;P2;SDS_P1;SDS_P2;PMS_P1;PMS_P2;Temp;Humidity;BMP_temperature;BMP_pressure;BME280_temperature;BME280_humidity;BME280_pressure;Samples;Min_cycle;Max_cycle;Signal;HPM_P1;HPM_P2
2022/06/23 00:00:17;;;;;;;3.55;3.25;;;;;;;13.02;94.58;101410.88;2088265;28;21103;-69
2022/06/23 00:01:34;;;;;;;3.85;3.53;;;;;;;12.97;94.15;101411.88;2078759;28;20880;-70
2022/06/23 00:02:38;;;;;;;4.35;3.50;;;;;;;13.03;93.92;101410.84;2079902;28;29436;-70
2022/06/23 00:03:40;;;;;;;3.83;3.53;;;;;;;12.99;94.03;101407.34;2078025;28;26763;-70
2022/06/23 00:04:46;;;;;;;4.10;3.60;;;;;;;12.95;93.92;101411.00;2071791;28;36059;-69
2022/06/23 00:05:59;;;;;;;4.05;3.35;;;;;;;12.94;93.41;101411.06;2080219;28;37578;-70
2022/06/23 00:07:29;;;;;;;6.85;3.60;;;;;;;12.95;94.10;101411.00;2078686;28;27036;-70
2022/06/23 00:08:40;;;;;;;4.55;3.53;;;;;;;12.92;94.36;101410.19;2072437;28;27389;-70
2022/06/23 00:09:44;;;;;;;3.33;3.00;;;;;;;12.89;93.97;101410.31;2080355;28;20910;-70
2022/06/23 00:10:55;;;;;;;5.22;3.78;;;;;;;12.85;94.74;101412.19;2079437;28;35679;-70
2022/06/23 00:12:11;;;;;;;3.60;3.30;;;;;;;12.85;94.22;101408.59;2073251;28;20043;-70
2022/06/23 00:13:22;;;;;;;4.32;3.92;;;;;;;12.83;94.81;101414.03;2072448;28;30171;-70
2022/06/23 00:14:26;;;;;;;3.88;3.47;;;;;;;12.80;94.62;101409.59;2080236;28;26205;-69
2022/06/23 00:15:38;;;;;;;4.15;3.75;;;;;;;12.79;94.87;101412.31;2079892;28;26295;-70
2022/06/23 00:16:42;;;;;;;4.30;3.90;;;;;;;12.78;95.11;101405.19;2079950;28;25502;-70
2022/06/23 00:17:58;;;;;;;3.58;3.28;;;;;;;12.77;95.58;101409.66;2078534;28;29806;-70
2022/06/23 00:19:01;;;;;;;4.45;4.00;;;;;;;12.78;95.46;101407.88;2072310;28;32525;-69
2022/06/23 00:20:29;;;;;;;3.60;3.30;;;;;;;12.81;95.48;101405.09;2072096;28;29704;-70
2022/06/23 00:21:33;;;;;;;3.92;3.63;;;;;;;12.77;95.51;101406.09;2080390;28;20889;-70
2022/06/23 00:22:41;;;;;;;4.57;3.70;;;;;;;12.78;95.48;101398.00;2077536;28;28892;-70
2022/06/23 00:23:49;;;;;;;4.50;4.10;;;;;;;12.78;95.13;101403.38;2080332;28;27656;-70
2022/06/23 00:24:56;;;;;;;6.03;4.22;;;;;;;12.79;95.93;101398.88;2080408;28;20095;-70
2022/06/23 00:26:07;;;;;;;4.70;3.83;;;;;;;12.82;95.87;101403.31;2080034;28;30198;-70
2022/06/23 00:27:18;;;;;;;5.57;4.00;;;;;;;12.86;96.14;101396.94;2080477;28;25904;-70
2022/06/23 00:28:35;;;;;;;4.68;4.07;;;;;;;12.83;95.51;101400.59;2084920;28;30976;-70
2022/06/23 00:29:37;;;;;;;4.50;4.10;;;;;;;12.83;95.64;101399.69;2085139;28;31233;-70
2022/06/23 00:30:41;;;;;;;4.90;4.40;;;;;;;12.82;96.28;101396.13;2080312;28;20870;-70
2022/06/23 00:31:53;;;;;;;5.13;4.55;;;;;;;12.84;96.03;101399.66;2087633;28;24153;-70
2022/06/23 00:32:55;;;;;;;4.40;4.00;;;;;;;12.82;96.08;101396.13;2088703;28;25011;-70
2022/06/23 00:34:00;;;;;;;5.80;4.50;;;;;;;12.82;95.73;101392.56;2087400;28;20238;-68
2022/06/23 00:35:07;;;;;;;5.10;4.47;;;;;;;12.80;95.72;101387.22;2087895;28;29326;-70
2022/06/23 00:36:28;;;;;;;4.40;4.00;;;;;;;12.79;95.91;101390.81;2088203;28;25515;-70
2022/06/23 00:37:33;;;;;;;5.40;4.68;;;;;;;12.82;96.29;101384.50;2088038;28;27878;-70
2022/06/23 00:38:39;;;;;;;4.45;4.05;;;;;;;12.83;95.79;101379.09;2087773;28;32771;-70
2022/06/23 00:39:53;;;;;;;4.82;4.43;;;;;;;12.79;96.06;101389.03;2087396;28;33779;-70
2022/06/23 00:41:00;;;;;;;5.68;4.47;;;;;;;12.80;96.43;101392.59;2087911;28;24553;-70
2022/06/23 00:42:33;;;;;;;5.13;4.63;;;;;;;12.80;95.99;101393.47;2087768;28;20074;-70
2022/06/23 00:43:35;;;;;;;4.97;4.07;;;;;;;12.73;95.57;101388.31;2071607;28;23559;-69
2022/06/23 00:44:53;;;;;;;4.88;4.35;;;;;;;12.72;96.17;101392.81;2080088;28;32105;-69
2022/06/23 00:46:07;;;;;;;5.13;4.55;;;;;;;12.70;96.08;101385.69;2080708;28;22782;-70
2022/06/23 00:47:21;;;;;;;4.53;4.03;;;;;;;12.68;96.31;101387.53;2081088;28;20160;-69
2022/06/23 00:48:46;;;;;;;5.10;4.60;;;;;;;12.65;96.41;101387.59;2087788;28;24357;-69
2022/06/23 00:50:09;;;;;;;5.88;4.43;;;;;;;12.66;96.29;101386.69;2083292;28;26938;-70
2022/06/23 00:51:36;;;;;;;5.22;4.30;;;;;;;12.60;96.28;101380.53;2088084;28;24571;-70
2022/06/23 00:52:49;;;;;;;4.35;3.95;;;;;;;12.57;96.64;101385.97;2085209;28;22084;-70
2022/06/23 00:54:18;;;;;;;5.65;4.75;;;;;;;12.57;96.51;101385.97;2088592;28;22218;-70
2022/06/23 00:55:54;;;;;;;5.95;5.13;;;;;;;12.64;97.46;101397.47;2079921;28;23574;-70
2022/06/23 00:57:08;;;;;;;5.10;4.70;;;;;;;12.60;97.40;101390.41;2079593;28;20038;-70
2022/06/23 00:58:22;;;;;;;5.32;4.70;;;;;;;12.56;97.17;101402.13;2074302;28;32570;-70
2022/06/23 00:59:38;;;;;;;4.90;4.43;;;;;;;12.57;97.13;101399.41;2080358;28;20038;-69
2022/06/23 01:00:42;;;;;;;5.70;4.38;;;;;;;12.51;96.52;101402.25;2079623;28;28569;-71
2022/06/23 01:02:09;;;;;;;4.97;3.92;;;;;;;12.51;97.36;101404.06;2071626;28;28566;-70
2022/06/23 01:03:29;;;;;;;5.32;4.72;;;;;;;12.45;96.76;101402.38;2074546;28;35037;-70
2022/06/23 01:04:41;;;;;;;5.10;4.65;;;;;;;12.40;96.90;101401.63;2079448;28;35132;-70
2022/06/23 01:05:59;;;;;;;5.35;4.53;;;;;;;12.39;97.26;101397.16;2077341;28;20038;-69
2022/06/23 01:07:38;;;;;;;6.47;5.28;;;;;;;12.47;97.97;101408.63;2079326;28;27820;-70
2022/06/23 01:09:00;;;;;;;7.10;5.25;;;;;;;12.48;98.62;101402.31;2073830;28;24598;-70
2022/06/23 01:10:43;;;;;;;6.13;4.80;;;;;;;12.46;97.89;101395.22;2079678;28;26384;-70
2022/06/23 01:12:00;;;;;;;7.18;5.00;;;;;;;12.47;98.19;101396.97;2079876;28;28083;-70
2022/06/23 01:13:40;;;;;;;5.93;5.35;;;;;;;12.44;98.58;101397.06;2079625;28;30190;-70
2022/06/23 01:14:55;;;;;;;6.18;5.45;;;;;;;12.47;98.66;101403.25;2077055;28;22037;-69
2022/06/23 01:16:17;;;;;;;6.65;5.72;;;;;;;12.46;97.90;101396.09;2080553;28;25740;-70
2022/06/23 01:18:10;;;;;;;7.13;5.97;;;;;;;12.39;98.01;101395.34;2080703;28;32950;-70
2022/06/23 01:19:58;;;;;;;6.28;5.55;;;;;;;12.41;98.11;101389.94;2070724;28;23896;-70
2022/06/23 01:21:16;;;;;;;7.07;6.38;;;;;;;12.43;98.17;101392.59;2080876;28;20036;-69
2022/06/23 01:22:34;;;;;;;8.48;6.68;;;;;;;12.48;98.72;101388.88;2088461;28;26253;-70
2022/06/23 01:24:06;;;;;;;9.15;7.10;;;;;;;12.48;98.33;101396.06;2087944;28;20038;-70
2022/06/23 01:25:41;;;;;;;7.70;6.70;;;;;;;12.49;98.76;101389.75;2083640;28;22865;-70
2022/06/23 01:27:04;;;;;;;7.57;6.40;;;;;;;12.48;98.20;101398.75;2080148;28;36335;-69
2022/06/23 01:28:42;;;;;;;7.70;6.10;;;;;;;12.49;98.96;101400.50;2080289;28;23067;-70
2022/06/23 01:29:59;;;;;;;9.50;7.10;;;;;;;12.50;98.71;101400.47;2062763;28;20157;-70
2022/06/23 01:31:26;;;;;;;8.30;7.20;;;;;;;12.47;98.74;101400.56;2062444;28;22202;-70
2022/06/23 01:32:43;;;;;;;9.18;7.28;;;;;;;12.44;98.64;101397.94;2074213;28;20054;-70
2022/06/23 01:34:17;;;;;;;8.20;7.28;;;;;;;12.47;98.68;101395.19;2083738;28;33819;-70
2022/06/23 01:35:52;;;;;;;11.57;8.55;;;;;;;12.51;98.75;101393.31;2083168;28;20164;-70
2022/06/23 01:37:02;;;;;;;9.63;7.82;;;;;;;12.49;98.93;101397.81;2086121;28;20219;-70
2022/06/23 01:38:34;;;;;;;8.63;7.45;;;;;;;12.47;98.94;101395.19;2088180;28;23754;-70
2022/06/23 01:39:48;;;;;;;10.00;8.20;;;;;;;12.45;98.83;101393.44;2087950;28;20392;-70
2022/06/23 01:41:05;;;;;;;11.07;8.65;;;;;;;12.46;99.00;101398.78;2088140;28;20168;-70
2022/06/23 01:42:47;;;;;;;8.18;7.28;;;;;;;12.41;99.09;101398.88;2087904;28;24647;-70
2022/06/23 01:44:03;;;;;;;9.05;8.00;;;;;;;12.42;98.78;101386.34;2088286;28;22534;-70
2022/06/23 01:45:57;;;;;;;9.82;8.60;;;;;;;12.38;99.18;101381.94;2082263;28;25581;-70
2022/06/23 01:47:01;;;;;;;11.13;8.70;;;;;;;12.36;99.12;101386.47;2080167;28;28946;-70
2022/06/23 01:49:51;;;;;;;12.35;9.77;;;;;;;12.33;99.01;101390.13;2087271;28;22565;-70
2022/06/23 01:50:55;;;;;;;13.20;10.25;;;;;;;12.30;98.81;101390.19;2087634;28;25326;-70
2022/06/23 01:52:19;;;;;;;12.32;10.23;;;;;;;12.31;99.25;101391.06;2085831;28;23716;-70
2022/06/23 01:53:28;;;;;;;12.95;11.35;;;;;;;12.33;99.94;101392.81;2087804;28;24070;-70
2022/06/23 01:54:34;;;;;;;13.30;11.25;;;;;;;12.36;99.36;101398.13;2088227;28;20034;-70
2022/06/23 01:56:10;;;;;;;12.88;10.82;;;;;;;12.32;99.49;101393.72;2086985;28;29382;-70
2022/06/23 01:57:43;;;;;;;13.40;11.05;;;;;;;12.37;99.69;101396.31;2083166;28;20030;-71
2022/06/23 01:59:13;;;;;;;13.20;10.45;;;;;;;12.34;99.78;101391.00;2080209;28;28214;-70
2022/06/23 02:00:24;;;;;;;11.60;10.30;;;;;;;12.31;99.36;101391.97;2087923;28;28259;-69
2022/06/23 02:02:03;;;;;;;12.52;10.13;;;;;;;12.31;99.50;101401.81;2085599;28;21823;-70
2022/06/23 02:03:27;;;;;;;12.45;10.52;;;;;;;12.28;99.63;101393.84;2079920;28;33557;-70
2022/06/23 02:05:11;;;;;;;13.27;11.02;;;;;;;12.27;99.79;101392.94;2088039;28;26983;-70
2022/06/23 02:06:25;;;;;;;13.00;10.85;;;;;;;12.26;99.26;101388.50;2081238;28;20626;-70
2022/06/23 02:07:39;;;;;;;11.32;9.55;;;;;;;12.25;99.65;101388.53;2079840;28;29452;-70
2022/06/23 02:08:54;;;;;;;11.82;10.63;;;;;;;12.21;99.44;101391.28;2080305;28;24814;-70
2022/06/23 02:10:25;;;;;;;12.07;9.55;;;;;;;12.20;99.67;101392.22;2080369;28;20033;-70
2022/06/23 02:11:49;;;;;;;11.30;9.63;;;;;;;12.15;99.97;101391.44;2079808;28;28645;-70
2022/06/23 02:13:23;;;;;;;12.63;10.13;;;;;;;12.20;100.00;101391.31;2079940;28;32696;-70
2022/06/23 02:14:58;;;;;;;15.13;10.77;;;;;;;12.19;100.00;101393.13;2080289;28;24519;-71
2022/06/23 02:16:21;;;;;;;13.05;10.50;;;;;;;12.18;100.00;101388.66;2080203;28;22874;-71
2022/06/23 02:17:58;;;;;;;15.18;11.30;;;;;;;12.27;100.00;101386.69;2079601;28;33169;-70
2022/06/23 02:19:27;;;;;;;13.38;11.73;;;;;;;12.25;100.00;101392.09;2080714;28;20910;-71
2022/06/23 02:20:52;;;;;;;16.77;12.15;;;;;;;12.34;100.00;101386.50;2080123;28;24247;-71
2022/06/23 02:22:11;;;;;;;14.18;11.93;;;;;;;12.30;100.00;101392.00;2080156;28;28509;-70
2022/06/23 02:23:23;;;;;;;15.18;12.20;;;;;;;12.29;100.00;101387.53;2079067;28;40639;-71
2022/06/23 02:24:49;;;;;;;12.13;10.80;;;;;;;12.30;100.00;101389.31;2079930;28;28380;-70
2022/06/23 02:26:06;;;;;;;12.63;11.20;;;;;;;12.24;100.00;101390.34;2087797;28;20093;-73
2022/06/23 02:27:20;;;;;;;14.00;11.82;;;;;;;12.28;100.00;101393.84;2087371;28;23184;-71
2022/06/23 02:28:41;;;;;;;13.88;11.55;;;;;;;12.30;100.00;101394.69;2084812;28;22549;-71
2022/06/23 02:30:00;;;;;;;15.77;12.25;;;;;;;12.28;100.00;101388.47;2079750;28;26591;-71
2022/06/23 02:31:26;;;;;;;13.90;11.35;;;;;;;12.28;100.00;101388.47;2080256;28;20985;-70
2022/06/23 02:33:04;;;;;;;13.43;12.02;;;;;;;12.26;100.00;101387.59;2087169;28;25391;-71
2022/06/23 02:34:54;;;;;;;12.93;11.05;;;;;;;12.28;100.00;101392.03;2088123;28;20954;-71
2022/06/23 02:36:12;;;;;;;13.65;11.90;;;;;;;12.29;100.00;101390.22;2088179;28;26792;-71
2022/06/23 02:38:08;;;;;;;12.30;11.00;;;;;;;12.30;100.00;101383.94;2087780;28;23961;-71
2022/06/23 02:39:26;;;;;;;12.93;10.73;;;;;;;12.27;100.00;101389.38;2071979;28;21998;-72
2022/06/23 02:40:42;;;;;;;13.43;11.15;;;;;;;12.26;100.00;101382.22;2079352;28;25501;-71
2022/06/23 02:41:55;;;;;;;14.50;11.45;;;;;;;12.24;100.00;101390.34;2076384;28;20062;-70
2022/06/23 02:43:15;;;;;;;12.50;10.35;;;;;;;12.26;100.00;101392.97;2078957;28;26069;-71
2022/06/23 02:44:33;;;;;;;;;;;;;;;12.28;100.00;101388.47;2076500;28;21892;-70
2022/06/23 02:45:59;;;;;;;14.57;10.48;;;;;;;12.27;100.00;101384.00;2071101;28;39341;-71
2022/06/23 02:47:17;;;;;;;11.70;9.57;;;;;;;12.22;100.00;101387.69;2071589;28;30888;-70
2022/06/23 02:49:08;;;;;;;14.32;10.57;;;;;;;12.21;100.00;101387.72;2071988;28;26132;-71
2022/06/23 02:50:50;;;;;;;12.65;9.38;;;;;;;12.17;100.00;101380.66;2071539;28;27526;-71
2022/06/23 02:52:01;;;;;;;10.88;9.75;;;;;;;12.16;100.00;101385.13;2070853;28;32487;-71
2022/06/23 02:53:42;;;;;;;12.10;10.02;;;;;;;12.15;100.00;101385.16;2079428;28;20049;-71
2022/06/23 02:55:20;;;;;;;11.77;9.70;;;;;;;12.18;100.00;101379.72;2080493;28;27738;-70
2022/06/23 02:56:50;;;;;;;11.35;10.15;;;;;;;12.18;100.00;101380.59;2073257;28;23928;-71
2022/06/23 02:58:04;;;;;;;11.40;9.23;;;;;;;12.19;100.00;101385.06;2073054;28;26378;-71
2022/06/23 02:59:39;;;;;;;11.63;9.55;;;;;;;12.13;100.00;101385.22;2073349;28;28728;-72
2022/06/23 03:01:04;;;;;;;11.95;10.38;;;;;;;12.14;100.00;101375.34;2073096;28;20856;-71
2022/06/23 03:02:29;;;;;;;10.50;9.07;;;;;;;12.11;100.00;101384.34;2086881;28;26719;-71
2022/06/23 03:03:44;;;;;;;10.45;9.27;;;;;;;12.13;100.00;101387.91;2088880;28;28813;-71
2022/06/23 03:04:56;;;;;;;12.38;9.75;;;;;;;12.15;100.00;101386.06;2084610;28;20053;-72
2022/06/23 03:06:08;;;;;;;12.15;10.00;;;;;;;12.16;100.00;101387.81;2088932;28;28637;-72
2022/06/23 03:07:34;;;;;;;11.85;9.50;;;;;;;12.17;100.00;101384.22;2089253;28;23584;-71
2022/06/23 03:08:46;;;;;;;11.48;9.93;;;;;;;12.20;100.00;101376.13;2084019;28;30538;-71
2022/06/23 03:10:03;;;;;;;14.07;9.98;;;;;;;12.18;100.00;101375.22;2081540;28;21036;-71
2022/06/23 03:13:09;;;;;;;11.85;9.38;;;;;;;12.15;100.00;101378.00;2088424;28;28473;-72
2022/06/23 03:14:29;;;;;;;13.50;9.93;;;;;;;12.16;100.00;101378.88;2088323;28;36292;-72
2022/06/23 03:15:48;;;;;;;10.48;9.27;;;;;;;12.11;100.00;101383.47;2086627;28;25896;-72
2022/06/23 03:17:03;;;;;;;11.95;9.57;;;;;;;12.10;100.00;101374.53;2081739;28;20049;-72
2022/06/23 03:18:37;;;;;;;9.18;8.18;;;;;;;12.09;100.00;101385.31;2088749;28;29772;-72
2022/06/23 03:19:54;;;;;;;9.70;8.70;;;;;;;12.07;100.00;101384.47;2083803;28;20038;-72
2022/06/23 03:21:12;;;;;;;10.68;8.88;;;;;;;12.07;100.00;101381.78;2081088;28;30727;-72
2022/06/23 03:22:37;;;;;;;9.32;8.30;;;;;;;12.07;100.00;101381.78;2088949;28;20119;-72
2022/06/23 03:23:58;;;;;;;9.82;8.60;;;;;;;12.10;100.00;101387.97;2085288;28;31362;-72
2022/06/23 03:25:21;;;;;;;10.60;9.50;;;;;;;12.16;100.00;101386.94;2089136;28;20143;-73
2022/06/23 03:26:41;;;;;;;10.77;9.63;;;;;;;12.15;100.00;101379.78;2083606;28;25156;-73
2022/06/23 03:28:40;;;;;;;10.52;9.43;;;;;;;12.19;100.00;101386.88;2081404;28;20424;-73
2022/06/23 03:29:58;;;;;;;10.98;9.50;;;;;;;12.26;100.00;101380.44;2069752;28;20823;-73
2022/06/23 03:31:22;;;;;;;10.40;8.85;;;;;;;12.36;100.00;101375.75;2082646;28;26996;-73
2022/06/23 03:32:31;;;;;;;11.85;9.30;;;;;;;12.38;99.59;101376.59;2089424;28;20104;-74
2022/06/23 03:33:45;;;;;;;10.73;9.40;;;;;;;12.38;99.28;101373.91;2088740;28;21786;-73
2022/06/23 03:35:09;;;;;;;11.30;8.98;;;;;;;12.39;99.16;101373.88;2088938;28;24752;-73
2022/06/23 03:36:45;;;;;;;10.23;8.98;;;;;;;12.40;99.18;101375.66;2084721;28;20245;-73
2022/06/23 03:38:22;;;;;;;10.27;9.25;;;;;;;12.42;99.24;101372.94;2081473;28;20114;-74
2022/06/23 03:42:27;;;;;;;9.07;7.93;;;;;;;12.46;98.97;101376.44;2081338;28;27940;-73
2022/06/23 03:43:32;;;;;;;9.57;8.57;;;;;;;12.48;99.26;101375.44;2088885;28;20894;-73
2022/06/23 03:45:20;;;;;;;10.48;9.38;;;;;;;12.51;99.04;101377.19;2087703;28;22688;-72
2022/06/23 03:46:33;;;;;;;9.48;8.57;;;;;;;12.52;99.05;101378.94;2065158;28;26792;-73
2022/06/23 03:48:16;;;;;;;10.02;8.95;;;;;;;12.55;98.65;101381.56;2087713;28;28123;-73
2022/06/23 03:49:42;;;;;;;11.00;9.02;;;;;;;12.56;98.08;101370.78;2079849;28;20053;-72
2022/06/23 03:51:00;;;;;;;9.70;8.27;;;;;;;12.59;98.53;101377.88;2088460;28;28723;-74
2022/06/23 03:52:15;;;;;;;9.13;8.20;;;;;;;12.62;98.68;101376.94;2088376;28;25434;-73
2022/06/23 03:53:24;;;;;;;9.50;7.90;;;;;;;12.65;97.87;101376.84;2088753;28;33981;-74
2022/06/23 03:54:33;;;;;;;9.83;8.13;;;;;;;12.68;98.42;101377.66;2086037;28;20042;-74
2022/06/23 03:56:01;;;;;;;9.57;8.55;;;;;;;12.73;98.42;101377.56;2081101;28;39025;-73
2022/06/23 03:57:18;;;;;;;9.02;8.00;;;;;;;12.76;97.87;101372.09;2081247;28;20034;-73
2022/06/23 03:58:33;;;;;;;10.63;7.97;;;;;;;12.85;98.10;101369.19;2088097;28;35343;-74
2022/06/23 04:00:04;;;;;;;9.32;7.97;;;;;;;12.91;96.92;101370.81;2085687;28;20093;-73
2022/06/23 04:01:20;;;;;;;9.30;7.80;;;;;;;13.04;96.85;101371.38;2088080;28;24522;-73
2022/06/23 04:02:33;;;;;;;7.63;6.68;;;;;;;13.12;96.64;101374.78;2088822;28;20046;-72
2022/06/23 04:04:00;;;;;;;7.88;7.10;;;;;;;13.27;95.54;101373.47;2088814;28;26202;-73
2022/06/23 04:05:30;;;;;;;8.32;7.43;;;;;;;13.44;93.69;101370.31;2084085;28;20070;-73
2022/06/23 04:06:43;;;;;;;8.23;7.20;;;;;;;13.65;93.43;101369.72;2088872;28;20423;-72
2022/06/23 04:07:55;;;;;;;7.82;7.00;;;;;;;13.89;91.90;101354.69;2086284;28;26498;-72
2022/06/23 04:09:17;;;;;;;7.30;6.60;;;;;;;14.10;91.17;101363.91;2081077;28;22687;-72
2022/06/23 04:10:29;;;;;;;8.57;6.15;;;;;;;14.56;88.47;101349.91;2081206;28;20939;-72
2022/06/23 04:12:02;;;;;;;;;;;;;;;14.91;85.49;101358.63;2089202;28;20045;-72
2022/06/23 04:13:14;;;;;;;5.53;5.03;;;;;;;15.51;83.14;101361.94;2083374;28;27846;-73
2022/06/23 04:14:32;;;;;;;6.10;5.38;;;;;;;15.42;83.09;101357.75;2088372;28;29469;-73
2022/06/23 04:15:39;;;;;;;5.47;4.95;;;;;;;15.74;82.92;101361.03;2086341;28;20037;-73
2022/06/23 04:16:42;;;;;;;6.57;4.50;;;;;;;16.14;80.38;101348.75;2088244;28;31565;-73
2022/06/23 04:17:54;;;;;;;5.18;4.68;;;;;;;16.25;78.56;101351.91;2086947;28;38664;-71
2022/06/23 04:18:56;;;;;;;4.38;3.85;;;;;;;16.71;78.04;101357.25;2088256;28;24482;-71
2022/06/23 04:20:36;;;;;;;5.95;4.70;;;;;;;17.13;74.81;101356.38;2088701;28;22305;-72
2022/06/23 04:21:44;;;;;;;5.15;4.20;;;;;;;17.27;73.58;101370.19;2087737;28;28699;-71
2022/06/23 04:22:53;;;;;;;5.57;4.05;;;;;;;17.38;73.96;101361.59;2088395;28;24542;-72
2022/06/23 04:24:00;;;;;;;4.70;3.20;;;;;;;18.08;72.71;101360.19;2087295;28;20972;-72
2022/06/23 04:25:05;;;;;;;4.47;4.07;;;;;;;18.58;70.32;101357.81;2088190;28;26939;-72
2022/06/23 04:26:22;;;;;;;4.15;3.75;;;;;;;18.88;67.78;101363.56;2088002;28;20877;-71
2022/06/23 04:27:49;;;;;;;5.45;3.90;;;;;;;19.24;66.71;101359.91;2085984;28;29889;-72
2022/06/23 04:28:59;;;;;;;3.85;3.20;;;;;;;19.70;64.56;101361.97;2081111;28;20038;-71
2022/06/23 04:30:01;;;;;;;3.88;3.22;;;;;;;20.04;63.37;101361.00;2087885;28;28794;-72
2022/06/23 04:31:07;;;;;;;5.43;3.50;;;;;;;19.71;61.84;101353.75;2087617;28;20103;-72
2022/06/23 04:32:20;;;;;;;3.70;2.92;;;;;;;20.26;62.44;101357.09;2088700;28;20871;-72
2022/06/23 04:33:25;;;;;;;3.97;3.58;;;;;;;20.56;60.13;101352.59;2088124;28;33531;-72
2022/06/23 04:34:33;;;;;;;4.05;3.42;;;;;;;20.67;59.50;101357.44;2087095;28;20082;-72
2022/06/23 04:35:39;;;;;;;3.60;3.30;;;;;;;20.67;59.39;101357.44;2081091;28;20042;-72
2022/06/23 04:36:46;;;;;;;4.05;3.20;;;;;;;20.43;58.92;101362.44;2088731;28;24893;-72
2022/06/23 04:38:37;;;;;;;3.80;3.30;;;;;;;20.94;59.78;101357.66;2087795;28;28962;-72
2022/06/23 04:39:46;;;;;;;3.55;3.25;;;;;;;20.84;58.50;101355.59;2071148;28;24397;-72
2022/06/23 04:40:58;;;;;;;4.80;3.20;;;;;;;21.08;58.73;101362.25;2078319;28;20135;-72
2022/06/23 04:42:25;;;;;;;3.30;3.10;;;;;;;21.46;56.45;101355.47;2081959;28;38011;-72
2022/06/23 04:43:48;;;;;;;4.43;3.50;;;;;;;20.89;60.42;101365.22;2087962;28;39179;-73
2022/06/23 04:45:14;;;;;;;4.53;3.20;;;;;;;21.43;56.11;101352.94;2088784;28;20144;-72
2022/06/23 04:46:36;;;;;;;3.25;2.78;;;;;;;21.82;55.47;101349.56;2088515;28;20041;-72
2022/06/23 04:47:41;;;;;;;4.00;3.47;;;;;;;22.18;55.23;101353.63;2082618;28;26535;-71
2022/06/23 04:49:14;;;;;;;4.43;3.70;;;;;;;21.45;56.31;101348.25;2087034;28;26426;-72
2022/06/23 04:50:39;;;;;;;3.85;3.45;;;;;;;22.23;53.78;101342.41;2083907;28;20911;-72
2022/06/23 04:52:01;;;;;;;5.22;3.42;;;;;;;21.71;56.23;101347.53;2088198;28;30403;-72
2022/06/23 04:53:19;;;;;;;8.35;3.20;;;;;;;22.29;55.04;101347.50;2088533;28;20049;-72
2022/06/23 04:54:36;;;;;;;7.03;3.38;;;;;;;22.89;51.65;101340.72;2084576;28;39396;-73
2022/06/23 04:55:39;;;;;;;5.28;3.30;;;;;;;23.15;50.88;101338.06;2080553;28;20895;-73
2022/06/23 04:56:46;;;;;;;5.05;3.13;;;;;;;22.59;53.37;101349.16;2080034;28;36602;-72
2022/06/23 04:58:14;;;;;;;7.90;3.10;;;;;;;22.69;52.90;101347.56;2088513;28;27274;-72
2022/06/23 04:59:38;;;;;;;4.25;3.10;;;;;;;23.39;51.60;101333.63;2087817;28;38616;-73
2022/06/23 05:00:53;;;;;;;3.72;3.40;;;;;;;22.40;54.19;101347.66;2082027;28;33012;-72
2022/06/23 05:01:59;;;;;;;5.07;3.13;;;;;;;22.41;53.83;101351.25;2080429;28;23037;-71
2022/06/23 05:03:15;;;;;;;4.05;3.65;;;;;;;22.57;51.70;101351.09;2087498;28;37885;-72
2022/06/23 05:04:39;;;;;;;4.38;3.10;;;;;;;22.37;53.74;101345.13;2085626;28;26808;-72
2022/06/23 05:05:41;;;;;;;4.88;2.97;;;;;;;22.98;52.94;101340.09;2080925;28;23795;-72
2022/06/23 05:06:54;;;;;;;3.30;2.80;;;;;;;23.30;51.37;101347.94;2081034;28;20926;-72
2022/06/23 05:08:24;;;;;;;5.82;2.90;;;;;;;23.61;50.95;101341.16;2088751;28;20345;-72
2022/06/23 05:09:32;;;;;;;;;;;;;;;23.20;50.79;101338.63;2084541;28;20111;-71
2022/06/23 05:11:00;;;;;;;4.43;2.80;;;;;;;23.68;50.04;101335.28;2080432;28;28288;-70
2022/06/23 05:12:31;;;;;;;4.53;3.25;;;;;;;23.99;48.79;101333.94;2080114;28;38628;-71
2022/06/23 05:13:48;;;;;;;5.70;3.15;;;;;;;24.40;48.57;101330.84;2080451;28;21022;-71
2022/06/23 05:14:59;;;;;;;4.13;2.88;;;;;;;24.70;47.46;101332.31;2088834;28;40738;-72
2022/06/23 05:16:08;;;;;;;;;;;;;;;24.50;47.03;101330.19;2086213;28;27199;-72
2022/06/23 05:17:22;;;;;;;4.22;3.13;;;;;;;24.17;49.28;101335.34;2079563;28;26842;-73
2022/06/23 05:18:48;;;;;;;5.78;3.55;;;;;;;24.96;46.75;101337.63;2080588;28;26772;-71
2022/06/23 05:19:59;;;;;;;4.57;3.70;;;;;;;24.07;48.50;101341.59;2080777;28;20790;-71
2022/06/23 05:21:09;;;;;;;6.15;3.33;;;;;;;24.31;47.64;101339.75;2088047;28;32685;-71
2022/06/23 05:22:30;;;;;;;5.85;3.45;;;;;;;24.77;46.50;101333.56;2088181;28;23895;-70
2022/06/23 05:23:46;;;;;;;4.80;3.50;;;;;;;24.72;47.46;101335.78;2085245;28;30768;-71
2022/06/23 05:24:48;;;;;;;4.45;3.03;;;;;;;25.28;46.71;101339.75;2088148;28;22827;-71
2022/06/23 05:25:55;;;;;;;4.80;3.08;;;;;;;25.79;44.15;101342.09;2086692;28;24193;-70
2022/06/23 05:27:18;;;;;;;4.05;3.20;;;;;;;25.78;43.77;101350.44;2088540;28;20034;-73
2022/06/23 05:28:28;;;;;;;5.65;3.70;;;;;;;23.59;49.25;101353.22;2086991;28;40340;-70
2022/06/23 05:29:49;;;;;;;4.57;3.35;;;;;;;24.16;48.31;101344.53;2087809;28;23261;-72
2022/06/23 05:30:59;;;;;;;5.28;3.15;;;;;;;25.24;45.44;101339.13;2087532;28;31247;-72
2022/06/23 05:32:21;;;;;;;4.75;3.47;;;;;;;25.00;46.23;101338.25;2087974;28;24020;-72
2022/06/23 05:33:49;;;;;;;3.88;3.28;;;;;;;25.82;43.75;101341.81;2087958;28;24736;-73
2022/06/23 05:35:30;;;;;;;6.75;3.13;;;;;;;25.85;43.28;101335.22;2088209;28;26123;-73
2022/06/23 05:36:56;;;;;;;8.77;3.38;;;;;;;25.99;43.51;101334.13;2087996;28;26807;-72
2022/06/23 05:38:20;;;;;;;4.95;3.58;;;;;;;25.78;44.31;101334.84;2087425;28;38014;-72
2022/06/23 05:39:34;;;;;;;5.82;3.50;;;;;;;25.03;45.36;101338.91;2087975;28;31406;-73
2022/06/23 05:41:18;;;;;;;4.57;2.90;;;;;;;25.09;45.20;101338.44;2086657;28;37491;-72
2022/06/23 05:42:31;;;;;;;3.53;3.22;;;;;;;25.41;46.06;101329.59;2076002;28;22558;-73
2022/06/23 05:43:42;;;;;;;5.68;3.50;;;;;;;26.10;43.62;101326.75;2080417;28;20093;-72
2022/06/23 05:45:26;;;;;;;5.53;3.33;;;;;;;25.33;45.52;101334.78;2087698;28;29913;-72
2022/06/23 05:46:30;;;;;;;4.28;3.15;;;;;;;25.59;44.72;101329.09;2087492;28;33203;-72
2022/06/23 05:47:33;;;;;;;4.80;3.30;;;;;;;25.95;43.40;101335.34;2088269;28;20192;-72
2022/06/23 05:48:42;;;;;;;4.68;2.95;;;;;;;26.62;42.47;101338.00;2087273;28;25585;-72
2022/06/23 05:49:54;;;;;;;4.65;3.22;;;;;;;24.75;46.75;101346.53;2080098;28;30576;-73
2022/06/23 05:51:10;;;;;;;7.57;3.20;;;;;;;25.55;43.73;101338.56;2087514;28;36788;-73
2022/06/23 05:52:58;;;;;;;4.65;3.10;;;;;;;26.00;44.01;101335.84;2087882;28;25834;-72
2022/06/23 05:54:12;;;;;;;5.78;2.95;;;;;;;26.94;41.01;101334.38;2074290;28;27442;-73
2022/06/23 05:55:38;;;;;;;5.32;3.47;;;;;;;26.77;41.19;101337.72;2078952;28;42621;-71
2022/06/23 05:57:07;;;;;;;4.88;3.20;;;;;;;26.93;41.32;101332.63;2087530;28;39597;-71
2022/06/23 05:58:40;;;;;;;5.25;2.60;;;;;;;27.66;39.39;101326.38;2082078;28;36920;-72
2022/06/23 05:59:45;;;;;;;3.70;3.25;;;;;;;27.20;41.44;101329.34;2087893;28;21124;-73
2022/06/23 06:01:11;;;;;;;5.07;2.85;;;;;;;27.48;39.48;101342.63;2085119;28;28898;-72
2022/06/23 06:02:32;;;;;;;3.42;3.05;;;;;;;27.37;40.17;101330.69;2087346;28;20041;-72
2022/06/23 06:03:55;;;;;;;4.05;3.33;;;;;;;27.27;40.58;101339.88;2081629;28;40794;-72
2022/06/23 06:05:00;;;;;;;4.20;3.80;;;;;;;25.67;43.61;101343.06;2080740;28;20212;-71
2022/06/23 06:06:05;;;;;;;6.65;3.47;;;;;;;27.52;40.28;101330.34;2087712;28;27031;-72
2022/06/23 06:07:14;;;;;;;4.90;3.25;;;;;;;28.05;38.93;101332.94;2086971;28;20045;-72
2022/06/23 06:08:30;;;;;;;5.93;3.13;;;;;;;28.02;38.58;101338.72;2080855;28;20054;-72
2022/06/23 06:09:36;;;;;;;3.70;3.28;;;;;;;28.05;38.58;101335.69;2080173;28;25958;-73
2022/06/23 06:10:41;;;;;;;5.03;3.13;;;;;;;28.36;39.06;101343.88;2087772;28;27019;-73
2022/06/23 06:11:53;;;;;;;4.95;3.70;;;;;;;28.74;38.02;101339.47;2087516;28;27542;-72
2022/06/23 06:12:57;;;;;;;4.30;3.20;;;;;;;28.67;38.02;101332.78;2087607;28;20966;-72